Stations météo

réclame
Mon MeteoGroup
Vilhelmina, Suède (2245): Température de l'air & dewpoint: 16.08.2019 03:00:00 - 22.08.2019 03:00:00 (CEST)Vilhelmina, Suède (2245): Vitesse du vent & gusts: 16.08.2019 03:00:00 - 22.08.2019 03:00:00 (CEST)Vilhelmina, Suède (2245): Direction du vent: 16.08.2019 03:00:00 - 22.08.2019 03:00:00 (CEST)Vilhelmina, Suède (2245): reduced air pressure: 16.08.2019 03:00:00 - 22.08.2019 03:00:00 (CEST)Vilhelmina, Suède (2245): visibility: 16.08.2019 03:00:00 - 22.08.2019 03:00:00 (CEST)Vilhelmina, Suède (2245): Quantités de précipitations: 16.08.2019 03:00:00 - 22.08.2019 03:00:00 (CEST)
Date & Time tt [°C] td [°C] ff [km/h] ff [knt] fx [km/h] fx [knt] dd ppp [hPa] vv [km] rr [mm]
22.08.2019 03:00:00 - - 4 2 - - SW - 10 -
22.08.2019 02:00:00 4,9 4,3 5 3 - - W - 10 -
22.08.2019 01:00:00 5,9 4,9 11 6 - - W - 10 -
22.08.2019 00:00:00 5,6 4,9 0 0 - - N - 10 -
21.08.2019 23:00:00 6,7 5,3 0 0 - - N - 10 -
21.08.2019 22:00:00 8,3 6,3 0 0 - - N - 10 -
21.08.2019 21:00:00 10,2 6,7 9 5 - - WSW - 10 -
21.08.2019 20:00:00 10,9 6,8 9 5 - - WSW - 10 -
21.08.2019 19:00:00 12,7 7,2 15 8 - - W - 10 -
21.08.2019 18:00:00 14,0 7,5 18 10 - - W - 10 -
21.08.2019 17:00:00 13,0 9,6 - - - - - - - -
21.08.2019 16:00:00 14,8 7,4 18 10 - - W - 10 -
21.08.2019 15:00:00 15,9 4,6 21 11 - - W - 10 -
21.08.2019 14:00:00 15,3 5,8 16 9 - - W - 10 -
21.08.2019 13:00:00 14,6 6,4 21 11 - - W - 10 -
21.08.2019 12:00:00 14,2 6,5 21 11 - - W - 10 -
21.08.2019 11:00:00 14,3 6,9 16 9 - - W - 10 -
21.08.2019 10:00:00 13,1 7,5 - - - - - - - -
21.08.2019 09:00:00 11,9 8,4 - - - - - - - -
21.08.2019 08:00:00 11,5 8,5 - - - - - - - -
21.08.2019 07:00:00 9,7 9,6 - - - - - - - -
21.08.2019 06:00:00 7,3 7,2 - - - - - - - -
21.08.2019 05:00:00 7,0 6,9 - - - - - - - -
21.08.2019 04:00:00 7,8 7,5 - - - - - - - -
21.08.2019 03:00:00 9,6 9,3 - - - - - - - -
21.08.2019 02:00:00 9,1 8,8 - - - - - - - -
21.08.2019 01:00:00 9,2 8,9 - - - - - - - -
21.08.2019 00:00:00 10,1 9,6 - - - - - - - -
20.08.2019 23:00:00 10,3 9,7 - - - - - - - -
20.08.2019 22:00:00 10,6 9,4 - - - - - - - -
20.08.2019 21:00:00 13,0 7,9 - - - - - - - -
20.08.2019 20:00:00 14,4 9,0 - - - - - - - -
20.08.2019 19:00:00 17,6 8,2 - - - - - - - -
20.08.2019 18:00:00 17,4 8,5 - - - - - - - -
20.08.2019 17:00:00 18,8 8,2 - - - - - - - -
20.08.2019 16:00:00 18,8 8,4 15 8 - - SSW - 10 -
20.08.2019 15:00:00 18,1 8,1 11 6 - - S - 10 -
20.08.2019 14:00:00 18,7 8,4 15 8 - - SW - 10 -
20.08.2019 13:00:00 17,2 8,6 13 7 - - SW - 10 -
20.08.2019 12:00:00 17,0 10,0 13 7 - - S - 10 -
20.08.2019 11:00:00 16,0 9,0 8 4 - - - - 10 -
20.08.2019 10:00:00 15,0 9,0 9 5 - - SSW - 10 -
20.08.2019 09:00:00 13,0 10,0 13 7 - - SSW - 10 -
20.08.2019 08:00:00 11,0 9,0 5 3 - - S - 10 -
20.08.2019 07:00:00 9,0 7,0 4 2 - - - - 10 -
20.08.2019 06:00:00 8,0 6,0 9 5 - - S - 10 -
20.08.2019 05:00:00 8,0 6,0 9 5 - - S - 10 -
20.08.2019 04:00:00 8,0 6,0 9 5 - - SSW - 10 -
20.08.2019 03:00:00 9,0 7,0 4 2 - - - - 10 -
20.08.2019 02:00:00 10,0 8,0 8 4 - - S - 10 -
20.08.2019 01:00:00 11,0 8,0 5 3 - - - - 10 -
20.08.2019 00:00:00 10,0 8,0 11 6 - - SSW - 10 -
19.08.2019 23:00:00 7,0 5,0 2 1 - - - - 10 -
19.08.2019 22:00:00 9,0 7,0 0 0 - - N - 10 -
19.08.2019 21:00:00 12,0 9,0 5 3 - - S - 10 -
19.08.2019 20:00:00 16,0 9,0 9 5 - - S - 10 -
19.08.2019 19:00:00 18,0 8,0 13 7 - - SW - 10 -
19.08.2019 18:00:00 17,0 9,0 16 9 - - SSW - 10 -
19.08.2019 17:00:00 - - - - - - - - - -
19.08.2019 16:00:00 17,0 10,0 16 9 - - S - 10 -
19.08.2019 15:00:00 17,0 8,0 16 9 - - SW - 10 -
19.08.2019 14:00:00 16,0 10,0 16 9 - - SW - 10 -
19.08.2019 13:00:00 16,0 11,0 11 6 - - S - 10 -
19.08.2019 12:00:00 14,0 12,0 11 6 - - S - 10 -
19.08.2019 11:00:00 15,0 12,0 9 5 - - S - 10 -
19.08.2019 10:00:00 13,0 11,0 0 0 - - N - 10 -
19.08.2019 09:00:00 13,0 10,0 8 4 - - ESE - 10 -
19.08.2019 08:00:00 12,0 10,0 2 1 - - - - 10 -
19.08.2019 07:00:00 12,0 10,0 4 2 - - - - 10 -
19.08.2019 06:00:00 12,0 10,0 5 3 - - ESE - 10 -
19.08.2019 05:00:00 12,0 10,0 4 2 - - - - 10 -
19.08.2019 04:00:00 13,0 10,0 0 0 - - N - 10 -
19.08.2019 03:00:00 13,0 10,0 11 6 - - ESE - 10 -
19.08.2019 02:00:00 13,0 11,0 8 4 - - E - 10 -
19.08.2019 01:00:00 13,0 11,0 5 3 - - E - 10 -
19.08.2019 00:00:00 14,0 11,0 13 7 - - E - 10 -
18.08.2019 23:00:00 13,0 11,0 5 3 - - - - 10 -
18.08.2019 22:00:00 14,0 12,0 9 5 - - ESE - 10 -
18.08.2019 21:00:00 15,0 12,0 8 4 - - ESE - 10 -
18.08.2019 20:00:00 16,0 12,0 13 7 - - SE - 10 -
18.08.2019 19:00:00 18,0 11,0 13 7 - - SSE - 10 -
18.08.2019 18:00:00 19,0 11,0 13 7 - - S - 10 -
18.08.2019 17:00:00 19,0 10,0 18 10 - - SSE - 10 -
18.08.2019 16:00:00 19,0 11,0 18 10 - - S - 10 -
18.08.2019 15:00:00 18,0 11,0 26 14 - - S - 10 -
18.08.2019 14:00:00 19,0 11,0 24 13 - - S - 10 -
18.08.2019 13:00:00 18,0 12,0 22 12 - - SSE - 10 -
18.08.2019 12:00:00 16,0 13,0 16 9 - - S - 10 -
18.08.2019 11:00:00 15,0 12,0 15 8 - - SSE - 10 -
18.08.2019 10:00:00 15,0 12,0 11 6 - - SSE - 10 -
18.08.2019 09:00:00 14,0 12,0 13 7 - - S - 10 -
18.08.2019 08:00:00 14,0 12,0 16 9 - - SSE - 10 -
18.08.2019 07:00:00 13,0 11,0 15 8 - - SE - 10 -
18.08.2019 06:00:00 13,0 11,0 16 9 - - SE - 10 -
18.08.2019 05:00:00 13,0 11,0 16 9 - - SE - 6 -
18.08.2019 04:00:00 13,0 11,0 16 9 - - SSE - 10 -
18.08.2019 03:00:00 13,0 11,0 16 9 - - SSE - 10 -
18.08.2019 02:00:00 13,0 11,0 18 10 - - SSE - 6 -
18.08.2019 01:00:00 13,0 11,0 13 7 - - SSE - 10 -
18.08.2019 00:00:00 13,0 11,0 16 9 - - SSE - 10 -
17.08.2019 23:00:00 14,0 9,0 15 8 - - SE - 10 -
17.08.2019 22:00:00 14,0 9,0 13 7 - - SSE - 10 -
17.08.2019 21:00:00 15,0 9,0 15 8 - - SSE - 10 -
17.08.2019 20:00:00 15,0 9,0 9 5 - - SE - 10 -
17.08.2019 19:00:00 16,0 8,0 13 7 - - S - 10 -
17.08.2019 18:00:00 18,0 8,0 18 10 - - S - 10 -
17.08.2019 17:00:00 18,0 8,0 18 10 - - S - 10 -
17.08.2019 16:00:00 19,0 11,0 21 11 - - SSE - 10 -
17.08.2019 15:00:00 18,0 12,0 18 10 - - SSE - 10 -
17.08.2019 14:00:00 18,0 13,0 21 11 - - SSE - 10 -
17.08.2019 13:00:00 17,0 13,0 18 10 - - SE - 10 -
17.08.2019 12:00:00 17,0 14,0 18 10 - - SE - 10 -
17.08.2019 11:00:00 15,0 13,0 11 6 - - SSE - 10 -
17.08.2019 10:00:00 14,0 12,0 13 7 - - SSE - 10 -
17.08.2019 09:00:00 13,0 11,0 15 8 - - SSE - 10 -
17.08.2019 08:00:00 13,0 10,0 11 6 - - ESE - 10 -
17.08.2019 07:00:00 13,0 10,0 11 6 - - SE - 10 -
17.08.2019 06:00:00 12,0 10,0 8 4 - - E - 10 -
17.08.2019 05:00:00 12,0 9,0 9 5 - - E - 10 -
17.08.2019 04:00:00 11,0 9,0 5 3 - - E - 10 -
17.08.2019 03:00:00 12,0 10,0 8 4 - - SSE - 10 -
17.08.2019 02:00:00 13,0 10,0 8 4 - - S - 10 -
17.08.2019 01:00:00 12,0 10,0 5 3 - - SSE - 10 -
17.08.2019 00:00:00 12,0 10,0 5 3 - - - - 10 -
16.08.2019 23:00:00 12,0 10,0 5 3 - - E - 10 -
16.08.2019 22:00:00 12,0 10,0 0 0 - - N - 10 -
16.08.2019 21:00:00 13,0 10,0 5 3 - - ESE - 10 -
16.08.2019 20:00:00 13,0 11,0 8 4 - - SE - 10 -
16.08.2019 19:00:00 13,0 11,0 2 1 - - - - 10 -
16.08.2019 18:00:00 13,0 10,0 9 5 - - W - 10 -
16.08.2019 17:00:00 - - - - - - - - - -
16.08.2019 16:00:00 15,0 9,0 8 4 - - S - 10 -
16.08.2019 15:00:00 15,0 9,0 13 7 - - S - 10 -
16.08.2019 14:00:00 16,0 9,0 16 9 - - S - 10 -
16.08.2019 13:00:00 15,0 8,0 15 8 - - S - 10 -
16.08.2019 12:00:00 14,0 8,0 21 11 - - S - 10 -
16.08.2019 11:00:00 15,0 7,0 16 9 - - SSE - 10 -
16.08.2019 10:00:00 15,0 8,0 9 5 - - SSE - 10 -
16.08.2019 09:00:00 11,0 8,0 5 3 - - - - 10 -
16.08.2019 08:00:00 6,1 6,1 2 1 5 3 - 1008,8 0,2 0,0
16.08.2019 07:00:00 3,6 3,6 2 1 5 3 - 1009,2 0,1 0,0
16.08.2019 06:00:00 2,0 2,0 0 0 5 3 N 1009,4 0,1 0,0
16.08.2019 05:00:00 1,6 1,6 4 2 3 2 ESE 1009,5 - 0,0
16.08.2019 04:00:00 1,5 1,5 0 0 5 3 N 1009,6 0,1 0,0
16.08.2019 03:00:00 1,4 1,3 0 0 3 2 N 1009,7 6 0,0

tt = Température de l'air
td = dewpoint
ff = Vitesse du vent
fx = gusts
dd = Direction du vent
ppp = reduced air pressure
vv = visibility
rr = Quantités de précipitations

stations d'obs. à proximité